FW1757 Weather Reports


time (UTC)temp
F
wind
direction
speed
knots
gust
knots
rain 1hr
in
rain 24hr
in
rain mn
in
humidity
%
barometer
mb
20260503200029 84 157 0.0 0.0 0.00 0.00 0.00 32 1010.5
20260503195526 83 148 0.0 0.0 0.00 0.00 0.00 32 1010.5
20260503195025 83 113 0.0 0.0 0.00 0.00 0.00 31 1010.6
20260503194525 83 144 0.0 0.0 0.00 0.00 0.00 33 1010.6
20260503194022 83 142 0.0 0.0 0.00 0.00 0.00 35 1010.6
20260503193521 82 156 0.0 0.0 0.00 0.00 0.00 34 1010.8
20260503193027 82 156 0.0 0.0 0.00 0.00 0.00 34 1010.9
20260503192517 82 161 0.0 0.0 0.00 0.00 0.00 35 1011.1
20260503192020 81 66 0.0 0.0 0.00 0.00 0.00 34 1011.1
20260503191516 80 125 0.0 0.0 0.00 0.00 0.00 36 1011.1
20260503191013 80 126 0.0 0.0 0.00 0.00 0.00 37 1011.2
20260503190513 79 351 0.0 0.0 0.00 0.00 0.00 42 1011.3
20260503190013 79 5 0.0 0.0 0.00 0.00 0.00 46 1011.3
20260503185508 78 5 0.0 0.0 0.00 0.00 0.00 46 1011.3
20260503185009 78 351 0.0 0.0 0.00 0.00 0.00 47 1011.5
20260503184508 77 36 0.0 0.0 0.00 0.00 0.00 50 1011.5
20260503184008 76 24 0.0 0.0 0.00 0.00 0.00 52 1011.6
20260503183503 76 24 0.0 0.0 0.00 0.00 0.00 48 1011.6
20260503183001 75 25 0.0 0.0 0.00 0.00 0.00 50 1011.7
20260503182559 75 40 0.0 0.0 0.00 0.00 0.00 51 1011.7
20260503182058 74 41 0.0 0.0 0.00 0.00 0.00 51 1011.8
20260503181559 74 41 0.0 0.0 0.00 0.00 0.00 52 1011.8
20260503181056 73 41 0.0 0.0 0.00 0.00 0.00 53 1011.9
20260503180557 73 10 0.0 0.0 0.00 0.00 0.00 54 1011.8
20260503180053 72 10 0.0 0.0 0.00 0.00 0.00 53 1011.9
20260503175550 72 17 0.0 0.0 0.00 0.00 0.00 56 1012.0
20260503175050 71 38 0.0 0.0 0.00 0.00 0.00 59 1012.0
20260503174548 71 349 0.0 0.0 0.00 0.00 0.00 58 1012.0
20260503174048 70 331 0.0 0.0 0.00 0.00 0.00 57 1012.1
20260503173545 69 269 0.0 0.0 0.00 0.00 0.00 58 1012.1
20260503173109 68 269 0.0 0.0 0.00 0.00 0.00 61 1012.1
20260503172547 68 269 0.0 0.0 0.00 0.00 0.00 60 1012.2
20260503172040 67 269 0.0 0.0 0.00 0.00 0.00 63 1012.2
20260503171541 66 269 0.0 0.0 0.00 0.00 0.00 66 1012.2
20260503171038 66 266 0.0 0.0 0.00 0.00 0.00 65 1012.3
20260503170536 65 266 0.0 0.0 0.00 0.00 0.00 66 1012.3
20260503151004 56 232 0.0 0.0 0.00 0.00 0.00 11 1012.8
20260503150603 56 232 0.0 0.0 0.00 0.00 0.00 9 1012.7
20260503131027 52 232 0.0 0.0 0.00 0.00 0.00 11 1012.3
20260503130525 52 232 0.0 0.0 0.00 0.00 0.00 9 1012.2
20260503110510 55 232 0.0 0.0 0.00 0.00 0.00 32 1012.1
20260503081551 58 232 0.0 0.0 0.00 0.00 0.00 36 1011.8
20260503081051 58 232 0.0 0.0 0.00 0.00 0.00 37 1011.7
20260503080651 58 232 0.0 0.0 0.00 0.00 0.00 38 1011.7
20260503072545 60 232 0.0 0.0 0.00 0.00 0.00 46 1011.7
20260503072043 60 232 0.0 0.0 0.00 0.00 0.00 48 1011.7
20260503071543 60 232 0.0 0.0 0.00 0.00 0.00 49 1011.8
20260503071041 60 232 0.0 0.0 0.00 0.00 0.00 50 1011.8
20260503070541 60 232 0.0 0.0 0.00 0.00 0.00 52 1011.7
20260503055037 63 232 0.0 0.0 0.00 0.00 0.00 63 1011.7
20260503054539 63 233 0.0 0.0 0.00 0.00 0.00 63 1011.7
20260503054037 63 233 0.0 0.0 0.00 0.00 0.00 64 1011.7
20260503053538 63 233 0.0 0.0 0.00 0.00 0.00 64 1011.7
20260503053039 63 233 0.0 0.0 0.00 0.00 0.00 64 1011.7
20260503052537 63 234 0.0 0.0 0.00 0.00 0.00 64 1011.7
20260503052037 64 234 0.0 0.0 0.00 0.00 0.00 64 1011.7
20260503051536 64 234 0.0 0.0 0.00 0.00 0.00 64 1011.6
20260503051037 64 234 0.0 0.0 0.00 0.00 0.00 64 1011.5
20260503050537 64 234 0.0 0.0 0.00 0.00 0.00 64 1011.6
20260503050036 64 234 0.0 0.0 0.00 0.00 0.00 64 1011.5
20260503045538 64 234 0.0 0.0 0.00 0.00 0.00 64 1011.6
20260503045038 64 234 0.0 0.0 0.00 0.00 0.00 64 1011.4
20260503044535 63 234 0.0 0.0 0.00 0.00 0.00 64 1011.5
20260503044034 63 234 0.0 0.0 0.00 0.00 0.00 64 1011.5
20260503043534 63 234 0.0 0.0 0.00 0.00 0.00 65 1011.4
20260503043040 63 277 0.0 0.0 0.00 0.00 0.00 65 1011.4
20260503042534 63 277 0.0 0.0 0.00 0.00 0.00 65 1011.3
20260503042034 64 277 0.0 0.0 0.00 0.00 0.00 65 1011.4
20260503041534 64 281 0.0 0.0 0.00 0.00 0.00 65 1011.3
20260503041033 64 281 0.0 0.0 0.00 0.00 0.00 66 1011.2
20260503040533 65 281 0.0 0.0 0.00 0.00 0.00 66 1011.1
20260503040045 65 281 0.0 0.0 0.00 0.00 0.00 66 1011.1
20260503035533 66 281 0.0 0.0 0.00 0.00 0.00 66 1010.9
20260503035033 66 281 0.0 0.0 0.00 0.00 0.00 65 1010.7
20260503034545 67 281 0.0 0.0 0.00 0.00 0.00 65 1010.6
20260503034032 67 281 0.0 0.0 0.00 0.00 0.00 65 1010.4
20260503033533 67 281 0.0 0.0 0.00 0.00 0.00 64 1010.4
20260503033039 68 281 0.0 0.0 0.00 0.00 0.00 63 1010.2
20260503032532 68 281 0.0 0.0 0.00 0.00 0.00 62 1010.2
20260503032034 69 281 0.0 0.0 0.00 0.00 0.00 61 1010.2
20260503031538 69 281 0.0 0.0 0.00 0.00 0.00 62 1009.9
20260503031032 70 281 0.0 0.0 0.00 0.00 0.00 60 1009.9
20260503030532 70 281 0.0 0.0 0.00 0.00 0.00 59 1009.9
20260503030045 71 281 0.0 0.0 0.00 0.00 0.00 58 1009.9
20260503025531 71 281 0.0 0.0 0.00 0.00 0.00 57 1009.8
20260503025033 72 281 0.0 0.0 0.00 0.00 0.00 56 1009.9
20260503024531 72 281 0.0 0.0 0.00 0.00 0.00 56 1009.8
20260503024031 72 281 0.0 0.0 0.00 0.00 0.00 56 1009.7
20260503023532 73 281 0.0 0.0 0.00 0.00 0.00 54 1009.7
20260503023031 73 281 0.0 0.0 0.00 0.00 0.00 52 1009.6
20260503022530 74 281 0.0 0.0 0.00 0.00 0.00 52 1009.5
20260503022029 75 281 0.0 0.0 0.00 0.00 0.00 52 1009.3
20260503021539 76 281 0.0 0.0 0.00 0.00 0.00 51 1009.3
20260503021030 76 281 0.0 0.0 0.00 0.00 0.00 51 1009.3
20260503020530 77 281 0.0 0.0 0.00 0.00 0.00 48 1009.2
20260503020030 78 281 0.0 0.0 0.00 0.00 0.00 49 1009.1
20260503015531 79 281 0.0 0.0 0.00 0.00 0.00 46 1009.1
20260503015028 79 281 0.0 0.0 0.00 0.00 0.00 46 1009.1
20260503014528 79 281 0.0 0.0 0.00 0.00 0.00 45 1009.0
20260503014028 80 281 0.0 0.0 0.00 0.00 0.00 48 1009.1
20260503013528 80 281 0.0 0.0 0.00 0.00 0.00 47 1009.0
20260503013028 80 281 0.0 0.0 0.00 0.00 0.00 41 1009.1
20260503012528 81 281 0.0 0.0 0.00 0.00 0.00 45 1009.1
20260503012028 81 281 0.0 0.0 0.00 0.00 0.00 41 1009.2
20260503011528 81 281 0.0 0.0 0.00 0.00 0.00 46 1009.2
20260503011027 81 281 0.0 0.0 0.00 0.00 0.00 41 1009.3
20260503010527 81 281 0.0 0.0 0.00 0.00 0.00 40 1009.2
20260503010027 82 281 0.0 0.0 0.00 0.00 0.00 39 1009.2
20260503005526 82 281 0.0 0.0 0.00 0.00 0.00 41 1009.2
20260503005027 82 281 0.0 0.0 0.00 0.00 0.00 45 1009.4
20260503004525 82 281 0.0 0.0 0.00 0.00 0.00 45 1009.3
20260503004029 82 281 0.0 0.0 0.00 0.00 0.00 42 1009.3
20260503003525 82 281 0.0 0.0 0.00 0.00 0.00 40 1009.3
20260503003025 83 281 0.0 0.0 0.00 0.00 0.00 41 1009.4
20260503002525 83 281 0.0 0.0 0.00 0.00 0.00 39 1009.4
20260503002027 83 281 0.0 0.0 0.00 0.00 0.00 40 1009.2
20260503001524 83 281 0.0 0.0 0.00 0.00 0.00 43 1009.3
20260503001025 83 281 0.0 0.0 0.00 0.00 0.00 41 1009.5
20260503000523 83 281 0.0 0.0 0.00 0.00 0.00 41 1009.4
20260503000031 83 281 0.0 0.0 0.00 0.00 0.00 42 1009.5
20260502235523 83 281 0.0 0.0 0.00 0.00 0.00 41 1009.5
20260502235022 83 281 0.0 0.0 0.00 0.00 0.00 41 1009.6
20260502234521 83 281 0.0 0.0 0.00 0.00 0.00 43 1009.7
20260502234021 83 281 0.0 0.0 0.00 0.00 0.00 45 1009.8
20260502233520 83 281 0.0 0.0 0.00 0.00 0.00 43 1009.8
20260502233021 83 281 0.0 0.0 0.00 0.00 0.00 43 1009.9
20260502232519 83 281 0.0 0.0 0.00 0.00 0.00 44 1009.9
20260502232019 84 278 0.0 0.0 0.00 0.00 0.00 44 1009.9
20260502231522 84 259 0.0 0.0 0.00 0.00 0.00 38 1009.9
20260502231021 85 259 0.0 0.0 0.00 0.00 0.00 42 1010.0
20260502230519 85 259 0.0 0.0 0.00 0.00 0.00 42 1010.0
20260502230017 84 296 0.0 0.0 0.00 0.00 0.00 43 1010.1
20260502225516 84 296 0.0 0.0 0.00 0.00 0.00 42 1010.2
20260502225015 84 296 0.0 0.0 0.00 0.00 0.00 41 1010.3
20260502224515 84 296 0.0 0.0 0.00 0.00 0.00 43 1010.3
20260502224015 85 296 0.0 0.0 0.00 0.00 0.00 41 1010.3
20260502223514 86 296 0.0 0.0 0.00 0.00 0.00 39 1010.4
20260502223015 86 305 0.0 0.0 0.00 0.00 0.00 40 1010.5
20260502222512 86 346 0.0 0.0 0.00 0.00 0.00 42 1010.6
20260502222013 86 22 0.0 0.0 0.00 0.00 0.00 39 1010.7
20260502221510 85 17 0.0 0.0 0.00 0.00 0.00 37 1010.8
20260502221009 85 238 0.0 0.0 0.00 0.00 0.00 38 1010.9
20260502220508 84 232 0.0 0.0 0.00 0.00 0.00 35 1010.9
20260502220009 83 321 0.0 0.0 0.00 0.00 0.00 37 1010.9
20260502215504 83 304 0.0 0.0 0.00 0.00 0.00 36 1011.1
20260502215004 82 300 0.0 0.0 0.00 0.00 0.00 41 1011.3
20260502214502 81 300 0.0 0.0 0.00 0.00 0.00 38 1011.3
20260502214101 81 300 0.0 0.0 0.00 0.00 0.00 42 1011.3
20260502213559 80 301 0.0 0.0 0.00 0.00 0.00 42 1011.5
20260502213058 79 302 0.0 0.0 0.00 0.00 0.00 40 1011.4
20260502212557 79 302 0.0 0.0 0.00 0.00 0.00 43 1011.7
20260502212056 78 302 0.0 0.0 0.00 0.00 0.00 40 1011.8
20260502211555 78 302 0.0 0.0 0.00 0.00 0.00 40 1011.9
20260502211058 78 298 0.0 0.0 0.00 0.00 0.00 45 1011.9
20260502210552 77 298 0.0 0.0 0.00 0.00 0.00 47 1011.8
20260502210101 76 298 0.0 0.0 0.00 0.00 0.00 49 1011.9
20260502205551 76 273 0.0 0.0 0.00 0.00 0.00 47 1011.8
20260502205052 76 273 0.0 0.0 0.00 0.00 0.00 48 1011.9
20260502204549 75 273 0.0 0.0 0.00 0.00 0.00 54 1011.9
20260502204048 75 273 0.0 0.0 0.00 0.00 0.00 56 1011.9
20260502203547 74 273 0.0 0.0 0.00 0.00 0.00 59 1012.0
20260502203049 74 251 0.0 0.0 0.00 0.00 0.00 58 1012.0
20260502202544 73 290 0.0 0.0 0.00 0.00 0.00 57 1012.2
20260502202043 73 53 0.0 0.0 0.00 0.00 0.00 56 1012.2
20260502201542 72 54 0.0 0.0 0.00 0.00 0.00 59 1012.2
20260502201041 71 56 0.0 0.0 0.00 0.00 0.00 57 1012.1
20260502200539 70 61 0.0 0.0 0.00 0.00 0.00 59 1012.3